Terminal Aerodrome Forecast
Issued by NWS

Current Version | Previous Version | Text Only | Print | Product List | Glossary On
Versions: 1 2 3 4 5 6 7 8 9 10 11 12 13 14 15 16 17 18
000
FTUS46 KLOX 181100 RRA
TAFSBA
TAF
KSBA 181143Z 1812/1912 VRB03KT P6SM OVC024
     FM181800 22005KT P6SM OVC025
     FM182200 27007KT P6SM BKN035
     FM190400 VRB03KT P6SM OVC025=

USA.gov is the U.S. government's official web portal to all federal, state and local government web resources and services.